Time;durP1;ratioP1;P1;durP2;ratioP2;P2;SDS_P1;SDS_P2;PMS_P1;PMS_P2;Temp;Humidity;BMP_temperature;BMP_pressure;BME280_temperature;BME280_humidity;BME280_pressure;Samples;Min_cycle;Max_cycle;Signal;HPM_P1;HPM_P2
2023/07/10 00:01:31;;;;;;;10.40;7.10;;;;;;;-141.97;58.45;47484.47;4956420;28;20210;-87
2023/07/10 00:03:56;;;;;;;9.80;6.87;;;;;;;-141.97;58.16;47484.47;4974426;28;20176;-85
2023/07/10 00:06:22;;;;;;;8.57;6.73;;;;;;;-141.97;58.30;47465.25;4973997;28;20235;-86
2023/07/10 00:08:48;;;;;;;9.83;6.67;;;;;;;-141.97;58.79;47430.66;4974415;28;20172;-86
2023/07/10 00:11:26;;;;;;;9.17;7.00;;;;;;;-141.97;58.76;47446.03;4955466;28;20176;-86
2023/07/10 00:13:54;;;;;;;13.20;7.63;;;;;;;-141.97;59.60;47511.38;4974161;28;20523;-88
2023/07/10 00:16:21;;;;;;;9.93;7.40;;;;;;;-141.97;60.15;47484.47;4974295;28;20233;-88
2023/07/10 00:18:47;;;;;;;9.53;7.20;;;;;;;-141.97;60.06;47369.16;4975976;28;20246;-89
2023/07/10 00:21:13;;;;;;;10.77;7.17;;;;;;;-141.97;59.45;47574.81;4978826;28;20196;-88
2023/07/10 00:23:38;;;;;;;10.23;7.00;;;;;;;-141.97;59.22;47444.13;4980250;28;20174;-89
2023/07/10 00:26:37;;;;;;;9.50;7.10;;;;;;;-141.97;59.21;47465.25;4984838;28;20338;-88
2023/07/10 00:29:16;;;;;;;9.87;7.40;;;;;;;-141.97;59.11;47407.59;4939039;29;20538;-89
2023/07/10 00:31:42;;;;;;;10.33;7.20;;;;;;;-141.97;59.52;47667.06;4940094;29;20529;-87
2023/07/10 00:34:13;;;;;;;10.83;7.33;;;;;;;-141.97;59.41;47488.31;4935453;29;20283;-88
2023/07/10 00:36:40;;;;;;;10.17;7.20;;;;;;;-141.97;59.19;47305.75;4934576;29;20212;-87
2023/07/10 00:39:23;;;;;;;9.87;7.33;;;;;;;-141.97;58.62;47488.31;4934232;29;20597;-87
2023/07/10 00:41:54;;;;;;;9.10;6.97;;;;;;;-141.97;58.35;47474.88;4933979;29;20197;-86
2023/07/10 00:44:23;;;;;;;13.23;7.50;;;;;;;-141.97;57.67;47457.56;4934778;29;20169;-85
2023/07/10 00:46:56;;;;;;;10.40;7.37;;;;;;;-141.97;57.33;47486.41;4920461;29;20197;-87
2023/07/10 00:49:37;;;;;;;7.63;6.33;;;;;;;-141.97;56.47;47492.16;4937109;29;20276;-87
2023/07/10 00:52:14;;;;;;;8.07;6.83;;;;;;;-141.97;56.44;47469.09;4934862;29;20263;-86
2023/07/10 00:54:44;;;;;;;10.20;6.83;;;;;;;-141.97;55.90;47480.63;4934984;29;20177;-87
2023/07/10 00:57:14;;;;;;;8.30;6.40;;;;;;;-141.97;55.34;47476.78;4935881;29;20184;-87
2023/07/10 00:59:42;;;;;;;8.37;6.57;;;;;;;-141.97;55.30;47457.56;4934638;29;20661;-87
2023/07/10 01:02:07;;;;;;;7.97;6.30;;;;;;;-141.97;55.07;47469.09;4939819;28;20221;-88
2023/07/10 01:04:34;;;;;;;9.00;6.17;;;;;;;-141.97;54.91;47711.28;4965481;28;20183;-87
2023/07/10 01:07:00;;;;;;;7.67;6.07;;;;;;;-141.97;54.93;47611.34;4997259;28;20308;-87
2023/07/10 01:09:26;;;;;;;7.77;5.83;;;;;;;-141.97;54.54;47526.75;4982608;28;20172;-89
2023/07/10 01:11:52;;;;;;;7.47;6.27;;;;;;;-141.97;54.20;47447.97;4961912;28;20168;-89
2023/07/10 01:14:19;;;;;;;7.80;6.10;;;;;;;-141.97;54.05;47463.34;4973941;28;20254;-88
2023/07/10 01:16:45;;;;;;;7.83;6.07;;;;;;;-141.97;54.05;47474.88;4973898;28;20171;-88
2023/07/10 01:19:16;;;;;;;7.87;5.97;;;;;;;-141.97;54.01;47490.25;4974318;28;20184;-88
2023/07/10 01:21:42;;;;;;;8.80;6.37;;;;;;;-141.97;54.02;47463.34;4973111;28;20188;-87
2023/07/10 01:24:08;;;;;;;9.40;6.27;;;;;;;-141.97;53.90;47469.09;4956141;28;20226;-84
2023/07/10 01:26:36;;;;;;;7.10;5.90;;;;;;;-141.97;53.77;47509.47;4955429;28;20207;-84
2023/07/10 01:29:02;;;;;;;6.90;5.53;;;;;;;-141.97;53.96;47492.16;4972629;28;20224;-84
2023/07/10 01:31:29;;;;;;;7.37;5.87;;;;;;;-141.97;54.39;47484.47;4972959;28;20617;-84
2023/07/10 01:34:02;;;;;;;7.90;5.77;;;;;;;-141.97;54.57;47472.94;4972847;28;20171;-85
2023/07/10 01:36:33;;;;;;;7.63;5.70;;;;;;;-141.97;54.49;47496.00;4973390;28;20531;-85
2023/07/10 01:39:26;;;;;;;6.60;5.30;;;;;;;-141.97;54.51;47501.78;4955657;28;20255;-84
2023/07/10 01:41:51;;;;;;;6.60;5.53;;;;;;;-141.97;54.25;47471.03;4955789;28;20549;-84
2023/07/10 01:44:27;;;;;;;7.53;5.57;;;;;;;-141.97;54.08;47449.88;4973177;28;20200;-83
2023/07/10 01:46:53;;;;;;;6.57;5.30;;;;;;;-141.97;53.93;47492.16;4973610;28;20580;-84
2023/07/10 01:49:26;;;;;;;7.50;5.53;;;;;;;-141.97;53.68;47467.19;4973120;28;20180;-84
2023/07/10 01:51:53;;;;;;;7.80;5.30;;;;;;;-141.97;53.81;47480.63;4992778;28;20164;-83
2023/07/10 01:54:19;;;;;;;8.87;5.60;;;;;;;-141.97;54.06;47497.94;4993077;28;20239;-83
2023/07/10 01:56:45;;;;;;;6.57;5.43;;;;;;;-141.97;54.08;47492.16;4993150;28;20710;-83
2023/07/10 01:59:11;;;;;;;7.57;5.10;;;;;;;-141.97;54.11;47478.72;4989171;28;20180;-83
2023/07/10 02:01:36;;;;;;;7.67;5.47;;;;;;;-141.97;54.12;47642.09;4955086;28;20671;-83
2023/07/10 02:04:03;;;;;;;7.43;5.47;;;;;;;-141.97;54.10;47511.38;4955476;28;20230;-84
2023/07/10 02:06:31;;;;;;;7.43;5.57;;;;;;;-141.97;54.37;47476.78;4971885;28;20227;-85
2023/07/10 02:08:57;;;;;;;8.10;5.57;;;;;;;-141.97;54.29;47496.00;4971670;28;20180;-84
2023/07/10 02:11:22;;;;;;;6.50;5.40;;;;;;;-141.97;54.15;47471.03;4973012;28;20164;-85
2023/07/10 02:13:47;;;;;;;8.03;5.80;;;;;;;-141.97;54.05;47507.53;4972767;28;20168;-86
2023/07/10 02:16:14;;;;;;;7.07;5.70;;;;;;;-141.97;54.02;47472.94;4972390;28;20247;-86
2023/07/10 02:18:40;;;;;;;9.40;6.00;;;;;;;-141.97;54.06;47499.84;4973159;28;20247;-87
2023/07/10 02:21:05;;;;;;;7.10;5.63;;;;;;;-141.97;54.10;47455.66;4960982;28;20204;-88
2023/07/10 02:23:31;;;;;;;7.60;5.60;;;;;;;-141.97;53.88;47480.63;4953631;29;20172;-86
2023/07/10 02:25:56;;;;;;;7.00;6.07;;;;;;;-141.97;53.84;47505.63;4953718;29;20248;-86
2023/07/10 02:28:22;;;;;;;7.00;6.00;;;;;;;-141.97;54.19;47488.31;4953155;29;20173;-86
2023/07/10 02:30:48;;;;;;;7.23;6.20;;;;;;;-141.97;54.23;47403.75;4967822;28;20176;-86
2023/07/10 02:33:13;;;;;;;7.13;6.07;;;;;;;-141.97;54.36;47522.91;4972154;28;20177;-86
2023/07/10 02:35:40;;;;;;;7.07;5.73;;;;;;;-141.97;54.59;47465.25;4975856;28;20164;-86
2023/07/10 02:38:06;;;;;;;9.70;6.33;;;;;;;-141.97;54.78;47474.88;4976261;28;20164;-86
2023/07/10 02:40:31;;;;;;;6.87;6.00;;;;;;;-141.97;55.17;47501.78;4958446;28;20328;-86
2023/07/10 02:42:57;;;;;;;6.97;6.20;;;;;;;-141.97;56.16;47480.63;4975980;28;20336;-85
2023/07/10 02:45:22;;;;;;;9.60;6.47;;;;;;;-141.97;56.19;47471.03;4976561;28;20168;-86
2023/07/10 02:47:48;;;;;;;8.00;6.43;;;;;;;-141.97;57.03;47371.09;4975910;28;20172;-85
2023/07/10 02:50:13;;;;;;;9.30;6.87;;;;;;;-141.97;57.23;47421.06;4975279;28;20203;-85
2023/07/10 02:52:38;;;;;;;12.17;6.97;;;;;;;-141.97;58.01;47490.25;4976354;28;20174;-85
2023/07/10 02:55:04;;;;;;;9.60;6.60;;;;;;;-141.97;58.18;47480.63;4992836;28;20706;-87
2023/07/10 02:57:29;;;;;;;9.30;6.50;;;;;;;-141.97;58.62;47415.28;4995761;28;20239;-86
2023/07/10 02:59:55;;;;;;;9.90;6.90;;;;;;;-141.97;59.08;47526.75;4971474;28;20223;-86
2023/07/10 03:02:20;;;;;;;9.73;6.40;;;;;;;-141.97;59.01;47496.00;4976697;28;20172;-86
2023/07/10 03:04:46;;;;;;;9.63;6.90;;;;;;;-141.97;58.43;47457.56;4978104;28;20168;-87
2023/07/10 03:07:11;;;;;;;12.87;7.10;;;;;;;-141.97;58.24;47474.88;4977040;28;20319;-87
2023/07/10 03:09:36;;;;;;;8.70;7.40;;;;;;;-141.97;58.79;47394.16;4975269;28;20680;-88
2023/07/10 03:12:02;;;;;;;10.63;7.47;;;;;;;-141.97;59.13;47667.06;4975301;28;20164;-86
2023/07/10 03:14:27;;;;;;;10.00;7.57;;;;;;;-141.97;59.19;47461.41;4974984;28;20330;-86
2023/07/10 03:16:53;;;;;;;11.70;7.80;;;;;;;-141.97;59.88;47496.00;4957272;28;20267;-87
2023/07/10 03:19:19;;;;;;;9.43;7.60;;;;;;;-141.97;59.77;47447.97;4975216;28;20647;-86
2023/07/10 03:21:44;;;;;;;10.53;7.47;;;;;;;-141.97;59.60;47515.22;4975849;28;20203;-85
2023/07/10 03:24:10;;;;;;;9.93;7.93;;;;;;;-141.97;59.56;47415.28;4975305;28;20251;-86
2023/07/10 03:26:35;;;;;;;10.73;8.13;;;;;;;-141.97;59.17;47680.53;4975777;28;20183;-88
2023/07/10 03:29:11;;;;;;;13.33;8.20;;;;;;;-141.97;59.54;47494.09;4988959;28;20181;-89
2023/07/10 03:31:37;;;;;;;11.80;8.00;;;;;;;-141.97;60.00;47426.81;4998217;28;20175;-88
2023/07/10 03:34:03;;;;;;;12.73;7.87;;;;;;;-141.97;60.90;47394.16;4990580;28;20263;-88
2023/07/10 03:36:28;;;;;;;13.57;8.67;;;;;;;-141.97;60.64;47515.22;4977718;28;20712;-87
2023/07/10 03:38:54;;;;;;;12.93;7.73;;;;;;;-141.97;60.55;47449.88;4982688;28;20176;-88
2023/07/10 03:41:20;;;;;;;17.20;8.03;;;;;;;-141.97;59.69;47503.69;4966275;28;20188;-90
2023/07/10 03:43:48;;;;;;;15.20;8.07;;;;;;;-141.97;58.92;47680.53;4984121;28;20188;-88
2023/07/10 03:46:14;;;;;;;13.60;7.47;;;;;;;-141.97;57.85;47369.16;4983970;28;20164;-89
2023/07/10 03:48:39;;;;;;;15.60;8.10;;;;;;;-141.97;56.99;47369.16;4985014;28;20168;-89
2023/07/10 03:51:05;;;;;;;11.03;8.10;;;;;;;-141.97;56.80;47507.53;4989225;28;20176;-89
2023/07/10 03:53:30;;;;;;;12.37;8.67;;;;;;;-141.97;56.90;47505.63;4972989;28;20180;-88
2023/07/10 03:55:56;;;;;;;14.30;9.13;;;;;;;-141.97;56.77;47526.75;4972043;28;20230;-89
2023/07/10 03:58:30;;;;;;;15.37;8.50;;;;;;;-141.97;56.64;47503.69;4991165;28;20175;-89
2023/07/10 04:00:57;;;;;;;13.77;8.33;;;;;;;-141.97;56.54;47472.94;4971253;28;20187;-90
2023/07/10 04:03:25;;;;;;;12.77;8.43;;;;;;;-141.97;56.45;47480.63;4989139;28;20176;-90
2023/07/10 04:05:57;;;;;;;16.40;7.77;;;;;;;-141.97;55.64;47407.59;4991055;28;20302;-90
2023/07/10 04:08:29;;;;;;;11.17;6.93;;;;;;;-141.97;55.21;47484.47;4990806;28;20171;-88
2023/07/10 04:10:58;;;;;;;11.83;7.00;;;;;;;-141.97;53.72;47494.09;4986694;28;20502;-89
2023/07/10 04:13:24;;;;;;;14.20;6.73;;;;;;;-141.97;52.58;47692.06;4985955;28;20195;-89
2023/07/10 04:16:00;;;;;;;9.13;6.57;;;;;;;-141.97;51.60;47503.69;4984412;28;20628;-89
2023/07/10 04:18:28;;;;;;;12.83;7.03;;;;;;;-141.97;50.61;47628.63;4987027;28;20178;-91
2023/07/10 04:20:54;;;;;;;9.90;5.73;;;;;;;-141.97;50.09;47482.56;4976629;28;20184;-91
2023/07/10 04:23:19;;;;;;;11.13;6.40;;;;;;;-141.97;49.88;47563.28;4997516;28;20162;-88
2023/07/10 04:25:45;;;;;;;12.00;6.77;;;;;;;-141.97;49.31;47292.28;4989707;28;20184;-89
2023/07/10 04:28:11;;;;;;;10.63;6.30;;;;;;;-141.97;49.01;47576.75;4987688;28;20174;-88
2023/07/10 04:30:37;;;;;;;10.97;6.00;;;;;;;-141.97;48.53;47321.13;4983526;28;20761;-91
2023/07/10 04:33:02;;;;;;;12.27;6.17;;;;;;;-141.97;48.48;47626.72;4988140;28;20209;-89
2023/07/10 04:35:28;;;;;;;9.67;6.07;;;;;;;-141.97;48.18;47626.72;4985463;28;20230;-89
2023/07/10 04:37:53;;;;;;;14.60;6.00;;;;;;;-141.97;47.83;47471.03;4980955;28;20176;-78
2023/07/10 04:40:18;;;;;;;7.93;5.73;;;;;;;-141.97;47.61;47444.13;4973985;28;20270;-79
2023/07/10 04:42:45;;;;;;;8.93;6.00;;;;;;;-141.97;47.49;47422.97;4970471;28;20216;-79
2023/07/10 04:45:10;;;;;;;10.53;6.80;;;;;;;-141.97;47.33;47472.94;4975008;28;20623;-79
2023/07/10 04:47:36;;;;;;;10.00;6.53;;;;;;;-141.97;47.51;47682.47;4975377;28;20255;-78
2023/07/10 04:50:01;;;;;;;8.60;6.80;;;;;;;-141.97;47.74;47484.47;4974571;28;20204;-78
2023/07/10 04:52:27;;;;;;;13.10;6.80;;;;;;;-141.97;47.41;47463.34;4973302;28;20198;-78
2023/07/10 04:54:52;;;;;;;8.10;6.53;;;;;;;-141.97;47.25;47463.34;4988233;28;20251;-78
2023/07/10 04:57:17;;;;;;;10.77;6.80;;;;;;;-141.97;47.44;47472.94;4992080;28;20163;-78
2023/07/10 04:59:44;;;;;;;9.13;6.53;;;;;;;-141.97;46.88;47467.19;4981972;28;20176;-79
2023/07/10 05:02:10;;;;;;;11.33;6.83;;;;;;;-141.97;47.20;47444.13;4972267;28;20196;-78
2023/07/10 05:04:35;;;;;;;8.70;6.97;;;;;;;-141.97;47.40;47480.63;4972522;28;20179;-78
2023/07/10 05:07:03;;;;;;;12.80;6.60;;;;;;;-141.97;46.92;47447.97;4972541;28;20649;-78
2023/07/10 05:09:29;;;;;;;8.13;6.43;;;;;;;-141.97;46.47;47488.31;4972072;28;20203;-79
2023/07/10 05:11:55;;;;;;;8.00;6.27;;;;;;;-141.97;46.06;47503.69;4972242;28;20593;-79
2023/07/10 05:14:20;;;;;;;9.03;6.37;;;;;;;-141.97;45.79;47492.16;4972394;28;20218;-79
2023/07/10 05:16:46;;;;;;;7.67;5.70;;;;;;;-141.97;45.81;47459.50;4972414;28;20252;-79
2023/07/10 05:19:11;;;;;;;8.67;6.17;;;;;;;-141.97;45.40;47457.56;4971763;28;20172;-79
2023/07/10 05:21:37;;;;;;;11.57;6.00;;;;;;;-141.97;45.33;47471.03;4972178;28;20188;-79
2023/07/10 05:24:02;;;;;;;11.53;6.20;;;;;;;-141.97;45.19;47499.84;4972156;28;20226;-79
2023/07/10 05:26:28;;;;;;;8.20;6.30;;;;;;;-141.97;44.90;47457.56;4972302;28;20251;-79
2023/07/10 05:28:53;;;;;;;8.03;6.03;;;;;;;-141.97;44.41;47430.66;4970736;28;20160;-79
2023/07/10 05:31:19;;;;;;;8.40;5.57;;;;;;;-141.97;43.96;47453.72;4972834;28;20666;-79
2023/07/10 05:33:47;;;;;;;8.97;6.37;;;;;;;-141.97;43.70;47434.50;4972394;28;20164;-79
2023/07/10 05:36:13;;;;;;;7.70;6.03;;;;;;;-141.97;43.38;47472.94;4972147;28;20180;-79
2023/07/10 05:38:39;;;;;;;9.53;5.53;;;;;;;-141.97;43.35;47467.19;4971721;28;20861;-79
2023/07/10 05:41:06;;;;;;;7.17;5.90;;;;;;;-141.97;42.60;47449.88;4972056;28;20195;-79
2023/07/10 05:43:33;;;;;;;12.77;5.90;;;;;;;-141.97;42.68;47461.41;4971996;28;20175;-79
2023/07/10 05:45:59;;;;;;;12.57;6.30;;;;;;;-141.97;42.69;47436.44;4972114;28;20218;-79
2023/07/10 05:48:25;;;;;;;7.67;5.43;;;;;;;-141.97;42.22;47472.94;4971423;28;20164;-79
2023/07/10 05:50:50;;;;;;;7.93;5.80;;;;;;;-141.97;42.82;47440.28;4972176;28;20194;-78
2023/07/10 05:53:17;;;;;;;8.10;5.80;;;;;;;-141.97;42.78;47476.78;4980410;28;20231;-78
2023/07/10 05:55:44;;;;;;;10.77;5.80;;;;;;;-141.97;42.48;47469.09;4996371;28;20172;-78
2023/07/10 05:58:10;;;;;;;8.47;6.30;;;;;;;-141.97;42.21;47299.97;4995071;28;20182;-76
2023/07/10 06:00:35;;;;;;;6.57;5.47;;;;;;;-141.97;41.55;47461.41;4975290;28;20188;-79
2023/07/10 06:03:00;;;;;;;10.07;5.60;;;;;;;-141.97;41.37;47451.81;4972403;28;20544;-79
2023/07/10 06:05:26;;;;;;;9.57;5.70;;;;;;;-141.97;41.82;47436.44;4971815;28;20175;-78
2023/07/10 06:07:51;;;;;;;12.47;6.63;;;;;;;-141.97;41.68;47442.19;4970673;28;20524;-78
2023/07/10 06:10:17;;;;;;;7.93;6.10;;;;;;;-141.97;41.13;47407.59;4974085;28;20172;-78
2023/07/10 06:12:42;;;;;;;9.20;5.95;;;;;;;-141.97;41.22;47436.44;4975021;28;20177;-78
2023/07/10 06:15:09;;;;;;;8.27;5.87;;;;;;;-141.97;41.17;47415.28;4975060;28;20168;-78
2023/07/10 06:17:34;;;;;;;13.73;6.00;;;;;;;-141.97;41.07;47419.13;4975120;28;20164;-78
2023/07/10 06:19:59;;;;;;;9.27;5.47;;;;;;;-141.97;41.00;47446.03;4974627;28;20173;-79
2023/07/10 06:22:25;;;;;;;6.80;5.60;;;;;;;-141.97;41.27;47447.97;4975175;28;20656;-78
2023/07/10 06:24:50;;;;;;;8.70;5.60;;;;;;;-141.97;40.79;47415.28;4974722;28;20256;-78
2023/07/10 06:27:16;;;;;;;21.40;5.93;;;;;;;-141.97;40.29;47426.81;4980348;28;20168;-79
2023/07/10 06:29:41;;;;;;;8.90;5.55;;;;;;;-141.97;39.63;47434.50;4986549;28;20550;-79
2023/07/10 06:32:07;;;;;;;5.78;5.18;;;;;;;-141.97;39.68;47438.34;4975082;28;20233;-79
2023/07/10 06:34:32;;;;;;;6.53;5.53;;;;;;;-141.97;40.38;47392.22;4975219;28;20165;-79
2023/07/10 06:36:58;;;;;;;8.65;5.75;;;;;;;-141.97;40.34;47382.63;4974847;28;20179;-79
2023/07/10 06:39:27;;;;;;;7.85;5.90;;;;;;;-141.97;40.29;47409.53;4974218;28;20216;-79
2023/07/10 06:41:53;;;;;;;8.27;5.80;;;;;;;-141.97;39.62;47428.75;4975386;28;20198;-79
2023/07/10 06:44:19;;;;;;;7.15;5.97;;;;;;;-141.97;40.08;47401.84;4974259;28;20167;-79
2023/07/10 06:46:44;;;;;;;7.68;5.50;;;;;;;-141.97;39.69;47430.66;4974619;28;20343;-79
2023/07/10 06:49:10;;;;;;;6.55;5.85;;;;;;;-141.97;39.84;47384.53;4976154;28;20169;-80
2023/07/10 06:51:36;;;;;;;7.65;5.90;;;;;;;-141.97;39.73;47396.06;4986906;28;20188;-80
2023/07/10 06:54:03;;;;;;;8.00;5.60;;;;;;;-141.97;39.36;47376.84;4985022;28;20193;-79
2023/07/10 06:56:29;;;;;;;7.38;5.70;;;;;;;-141.97;38.41;47380.69;4994567;28;20273;-80
2023/07/10 06:58:54;;;;;;;6.47;5.70;;;;;;;-141.97;38.12;47403.75;4994051;28;20219;-78
2023/07/10 07:01:20;;;;;;;6.93;4.85;;;;;;;-141.97;37.89;47403.75;4974213;28;20188;-79
2023/07/10 07:03:45;;;;;;;8.60;5.97;;;;;;;-141.97;38.57;47426.81;4974817;28;20653;-79
2023/07/10 07:06:11;;;;;;;8.77;5.60;;;;;;;-141.97;37.83;47369.16;4974770;28;20261;-79
2023/07/10 07:08:36;;;;;;;6.57;5.50;;;;;;;-141.97;38.27;47422.97;4974084;28;20188;-79
2023/07/10 07:11:02;;;;;;;6.80;5.80;;;;;;;-141.97;38.21;47392.22;4973958;28;20189;-79
2023/07/10 07:13:27;;;;;;;6.90;5.82;;;;;;;-141.97;37.95;47388.38;4974169;28;20172;-79
2023/07/10 07:15:54;;;;;;;6.47;5.60;;;;;;;-141.97;38.34;47390.31;4974090;28;20200;-78
2023/07/10 07:18:21;;;;;;;7.35;5.55;;;;;;;-141.97;38.17;47411.44;4973927;28;20169;-78
2023/07/10 07:20:48;;;;;;;8.80;5.90;;;;;;;-141.97;38.23;47376.84;4974591;28;20200;-78
2023/07/10 07:23:13;;;;;;;7.40;6.20;;;;;;;-141.97;38.00;47378.78;4975279;28;20159;-78
2023/07/10 07:25:41;;;;;;;9.43;6.07;;;;;;;-141.97;38.00;47411.44;4977265;28;20175;-79
2023/07/10 07:28:07;;;;;;;6.25;5.65;;;;;;;-141.97;38.01;47432.59;4979452;28;20162;-78
2023/07/10 07:30:33;;;;;;;6.45;5.68;;;;;;;-141.97;38.43;47384.53;4976625;28;20217;-79
2023/07/10 07:32:59;;;;;;;7.45;5.70;;;;;;;-141.97;38.31;47378.78;4972051;28;20269;-78
2023/07/10 07:35:25;;;;;;;9.77;6.07;;;;;;;-141.97;37.35;47376.84;4993365;28;20215;-78
2023/07/10 07:37:50;;;;;;;8.55;5.70;;;;;;;-141.97;36.41;47405.69;4976021;28;20179;-79
2023/07/10 07:40:16;;;;;;;7.50;5.78;;;;;;;-141.97;37.22;47359.56;4983320;28;20172;-79
2023/07/10 07:42:48;;;;;;;5.70;5.05;;;;;;;-141.97;37.01;47392.22;4973548;28;20164;-79
2023/07/10 07:45:15;;;;;;;7.35;5.70;;;;;;;-141.97;37.06;47353.78;4973892;28;20174;-79
2023/07/10 07:47:41;;;;;;;9.07;6.40;;;;;;;-141.97;36.67;47367.25;4955909;28;20203;-78
2023/07/10 07:50:09;;;;;;;7.07;5.95;;;;;;;-141.97;36.50;47373.00;4973255;28;20256;-78
2023/07/10 07:52:35;;;;;;;8.98;6.00;;;;;;;-141.97;36.78;47363.41;4973532;28;20171;-79
2023/07/10 07:55:00;;;;;;;8.23;5.65;;;;;;;-141.97;36.34;47342.25;4973907;28;20211;-79
2023/07/10 07:57:25;;;;;;;6.78;5.57;;;;;;;-141.97;35.86;47353.78;4973465;28;20165;-79
2023/07/10 07:59:51;;;;;;;7.22;5.43;;;;;;;-141.97;35.57;47349.94;4974100;28;20178;-79
2023/07/10 08:02:17;;;;;;;8.82;6.03;;;;;;;-141.97;35.25;47342.25;4973768;28;20255;-79
2023/07/10 08:04:42;;;;;;;9.95;5.50;;;;;;;-141.97;35.24;47357.63;4973267;28;20176;-81
2023/07/10 08:07:08;;;;;;;6.07;5.25;;;;;;;-141.97;35.28;47334.56;4972946;28;20790;-80
2023/07/10 08:09:34;;;;;;;6.57;5.47;;;;;;;-141.97;35.07;47357.63;4956150;28;20168;-81
2023/07/10 08:12:00;;;;;;;6.43;5.22;;;;;;;-141.97;35.04;47355.72;4973202;28;20179;-80
2023/07/10 08:14:26;;;;;;;7.30;5.05;;;;;;;-141.97;34.89;47338.41;4973033;28;20213;-80
2023/07/10 08:16:52;;;;;;;7.10;5.07;;;;;;;-141.97;34.33;47359.56;4982015;28;20158;-80
2023/07/10 08:19:18;;;;;;;7.28;5.40;;;;;;;-141.97;34.62;47348.03;4997080;28;20184;-79
2023/07/10 08:21:43;;;;;;;6.47;5.68;;;;;;;-141.97;34.94;47336.50;4980239;28;20220;-78
2023/07/10 08:24:09;;;;;;;6.20;5.10;;;;;;;-141.97;34.21;47323.03;4994788;28;20183;-80
2023/07/10 08:26:34;;;;;;;8.85;5.47;;;;;;;-141.97;33.51;47326.88;4983737;28;20254;-79
2023/07/10 08:29:30;;;;;;;8.10;5.32;;;;;;;-141.97;34.75;47321.13;4978401;28;20197;-79
2023/07/10 08:31:57;;;;;;;8.18;5.20;;;;;;;-141.97;33.66;47315.34;4973160;28;20259;-79
2023/07/10 08:34:24;;;;;;;6.30;5.03;;;;;;;-141.97;33.75;47311.50;4972608;28;20171;-78
2023/07/10 08:36:52;;;;;;;7.50;4.80;;;;;;;-141.97;33.87;47349.94;4973237;28;20170;-78
2023/07/10 08:39:17;;;;;;;5.40;4.85;;;;;;;-141.97;32.71;47309.59;4972708;28;20158;-79
2023/07/10 08:41:43;;;;;;;5.88;4.68;;;;;;;-141.97;32.62;47330.72;4965846;28;20246;-78
2023/07/10 08:44:11;;;;;;;6.35;4.50;;;;;;;-141.97;31.72;47313.44;4992167;28;20202;-78
2023/07/10 08:46:37;;;;;;;13.73;5.45;;;;;;;-141.97;32.65;47321.13;4991452;28;20238;-78
2023/07/10 08:49:41;;;;;;;4.93;3.97;;;;;;;-141.97;31.88;47315.34;4974466;28;20178;-78
2023/07/10 08:52:12;;;;;;;6.05;4.50;;;;;;;-141.97;32.02;47353.78;4953096;29;20202;-78
2023/07/10 08:54:38;;;;;;;6.25;4.40;;;;;;;-141.97;32.07;47305.75;4937755;29;20204;-78
2023/07/10 08:57:04;;;;;;;5.15;4.65;;;;;;;-141.97;32.05;47296.13;4931889;29;20173;-77
2023/07/10 08:59:47;;;;;;;5.85;4.68;;;;;;;-141.97;31.58;47307.66;4930883;29;20252;-76
2023/07/10 09:02:30;;;;;;;5.53;4.72;;;;;;;-141.97;31.54;47311.50;4931393;29;20201;-78
2023/07/10 09:04:55;;;;;;;9.27;4.57;;;;;;;-141.97;31.83;47624.78;4917155;29;20260;-78
2023/07/10 09:07:21;;;;;;;5.15;4.63;;;;;;;-141.97;31.92;47286.53;4931340;29;20324;-78
2023/07/10 09:09:52;;;;;;;5.65;4.50;;;;;;;-141.97;31.90;47298.06;4938024;29;20184;-78
2023/07/10 09:12:35;;;;;;;4.95;4.40;;;;;;;-141.97;31.95;47607.50;4931642;29;20190;-78
2023/07/10 09:15:07;;;;;;;8.57;4.97;;;;;;;-141.97;31.24;47284.59;4939785;29;20177;-78
2023/07/10 09:17:44;;;;;;;5.05;4.15;;;;;;;-141.97;30.39;47357.63;4937961;29;20197;-77
2023/07/10 09:20:10;;;;;;;5.05;4.20;;;;;;;-141.97;30.37;47315.34;4949451;29;20192;-77
2023/07/10 09:22:43;;;;;;;5.03;4.30;;;;;;;-141.97;30.37;47296.13;4935318;29;20169;-78
2023/07/10 09:25:11;;;;;;;5.45;4.35;;;;;;;-141.97;29.56;47303.81;4938147;28;20664;-78
2023/07/10 09:27:40;;;;;;;6.07;4.45;;;;;;;-141.97;28.85;47328.81;4972480;28;20659;-78
2023/07/10 09:30:21;;;;;;;4.03;3.63;;;;;;;-141.97;29.02;47296.13;4973299;28;20195;-78
2023/07/10 09:32:50;;;;;;;4.68;3.70;;;;;;;-141.97;29.21;47294.22;4972313;28;20961;-78
2023/07/10 09:35:16;;;;;;;5.63;3.75;;;;;;;-141.97;29.53;47271.16;4972885;28;20170;-77
2023/07/10 09:37:49;;;;;;;5.40;4.07;;;;;;;-141.97;30.02;47296.13;4973192;28;20175;-78
2023/07/10 09:40:36;;;;;;;4.93;3.92;;;;;;;-141.97;29.58;47292.28;4972432;28;20212;-77
2023/07/10 09:43:11;;;;;;;6.68;4.63;;;;;;;-141.97;29.53;47311.50;4974467;28;20182;-77
2023/07/10 09:45:42;;;;;;;4.45;4.05;;;;;;;-141.97;29.05;47273.06;4978015;28;20241;-78
2023/07/10 09:48:30;;;;;;;4.63;4.00;;;;;;;-141.97;29.18;47276.91;4999074;28;20183;-77
2023/07/10 09:51:00;;;;;;;5.20;3.92;;;;;;;-141.97;29.29;47267.31;4998492;28;20183;-77
2023/07/10 09:53:32;;;;;;;5.03;3.90;;;;;;;-141.97;29.70;47284.59;4998464;28;20167;-77
2023/07/10 09:55:58;;;;;;;11.27;4.90;;;;;;;-141.97;29.52;47265.38;4998453;28;20213;-79
2023/07/10 09:58:23;;;;;;;4.40;4.00;;;;;;;-141.97;29.76;47324.97;4999719;28;20262;-78
2023/07/10 10:00:49;;;;;;;4.50;4.05;;;;;;;-141.97;29.73;47334.56;4997927;28;20899;-77
2023/07/10 10:03:20;;;;;;;5.65;3.97;;;;;;;-141.97;29.51;47276.91;5000620;28;20171;-78
2023/07/10 10:05:53;;;;;;;5.07;3.75;;;;;;;-141.97;29.45;47296.13;4997484;28;20183;-77
2023/07/10 10:08:31;;;;;;;4.20;3.80;;;;;;;-141.97;28.32;47275.00;4979939;28;21027;-77
2023/07/10 10:11:08;;;;;;;5.47;4.05;;;;;;;-141.97;28.01;47269.22;5006751;28;20187;-77
2023/07/10 10:13:42;;;;;;;4.53;3.78;;;;;;;-141.97;27.92;47226.94;4997720;28;20246;-77
2023/07/10 10:16:37;;;;;;;4.10;3.70;;;;;;;-141.97;28.60;47273.06;4997281;28;20255;-77
2023/07/10 10:19:29;;;;;;;5.07;4.03;;;;;;;-141.97;28.32;47296.13;4957237;29;20914;-77
2023/07/10 10:21:55;;;;;;;4.10;3.80;;;;;;;-141.97;28.43;47261.53;4956644;28;20552;-77
2023/07/10 10:24:20;;;;;;;5.65;4.00;;;;;;;-141.97;29.18;47271.16;4944066;29;20194;-78
2023/07/10 10:27:10;;;;;;;4.75;3.92;;;;;;;-141.97;29.06;47276.91;4958185;28;20786;-77
2023/07/10 10:29:45;;;;;;;4.82;3.92;;;;;;;-141.97;28.23;47284.59;4958279;29;20199;-77
2023/07/10 10:32:39;;;;;;;6.22;3.72;;;;;;;-141.97;28.26;47271.16;4955923;29;20210;-77
2023/07/10 10:35:23;;;;;;;5.55;3.90;;;;;;;-141.97;28.61;47246.16;4957360;29;20183;-76
2023/07/10 10:38:00;;;;;;;4.60;4.10;;;;;;;-141.97;29.02;47259.63;4957023;28;20259;-77
2023/07/10 10:40:44;;;;;;;4.88;3.95;;;;;;;-141.97;29.02;47267.31;4957345;28;20179;-77
2023/07/10 10:43:31;;;;;;;6.13;4.10;;;;;;;-141.97;28.95;47280.75;4960482;29;20645;-77
2023/07/10 10:46:17;;;;;;;11.00;4.40;;;;;;;-141.97;28.98;47257.69;4964654;29;20291;-77
2023/07/10 10:48:52;;;;;;;5.70;3.95;;;;;;;-141.97;28.27;47234.63;4962548;29;20156;-76
2023/07/10 10:51:45;;;;;;;4.32;3.92;;;;;;;-141.97;28.69;47253.84;4960794;28;20267;-77
2023/07/10 10:54:14;;;;;;;5.10;3.95;;;;;;;-141.97;28.13;47288.44;4955996;28;20303;-77
2023/07/10 10:57:01;;;;;;;4.70;3.88;;;;;;;-141.97;28.46;47265.38;4969058;28;20195;-77
2023/07/10 10:59:44;;;;;;;4.50;4.10;;;;;;;-141.97;28.86;47238.47;4975222;28;20183;-77
2023/07/10 11:02:29;;;;;;;5.50;4.40;;;;;;;-141.97;29.39;47250.00;4974331;28;20559;-77
2023/07/10 11:05:08;;;;;;;5.25;4.50;;;;;;;-141.97;29.25;47261.53;4975971;28;20164;-77
2023/07/10 11:07:35;;;;;;;5.05;4.57;;;;;;;-141.97;29.38;47284.59;4974702;28;20323;-77
2023/07/10 11:10:04;;;;;;;4.97;4.30;;;;;;;-141.97;29.44;47259.63;4968456;28;20195;-77
2023/07/10 11:12:32;;;;;;;5.43;4.10;;;;;;;-141.97;29.01;47240.41;4975384;28;20176;-77
2023/07/10 11:15:15;;;;;;;4.53;4.13;;;;;;;-141.97;29.10;47263.47;4975813;28;20598;-78
2023/07/10 11:17:44;;;;;;;4.60;4.13;;;;;;;-141.97;28.69;47549.84;4974219;28;20195;-77
2023/07/10 11:20:15;;;;;;;4.70;4.03;;;;;;;-141.97;28.38;47250.00;4974512;28;20161;-80
2023/07/10 11:23:45;;;;;;;6.03;4.05;;;;;;;-141.97;28.55;47211.56;4974173;28;20667;-81